sensor_id;sensor_type;location;lat;lon;timestamp;temperature;humidity
59855;DHT22;45732;52.850;6.896;2022-09-13T00:00:54;17.70;99.90
59855;DHT22;45732;52.850;6.896;2022-09-13T00:03:20;17.70;99.90
59855;DHT22;45732;52.850;6.896;2022-09-13T00:05:46;17.60;99.90
59855;DHT22;45732;52.850;6.896;2022-09-13T00:08:12;17.60;99.90
59855;DHT22;45732;52.850;6.896;2022-09-13T00:10:42;17.70;99.90
59855;DHT22;45732;52.850;6.896;2022-09-13T00:13:09;17.70;99.90
59855;DHT22;45732;52.850;6.896;2022-09-13T00:15:36;17.70;99.90
59855;DHT22;45732;52.850;6.896;2022-09-13T00:18:06;17.70;99.90
59855;DHT22;45732;52.850;6.896;2022-09-13T00:20:32;17.70;99.90
59855;DHT22;45732;52.850;6.896;2022-09-13T00:22:57;17.70;99.90
59855;DHT22;45732;52.850;6.896;2022-09-13T00:25:23;17.70;99.90
59855;DHT22;45732;52.850;6.896;2022-09-13T00:27:49;17.70;99.90
59855;DHT22;45732;52.850;6.896;2022-09-13T00:30:14;17.70;99.90
59855;DHT22;45732;52.850;6.896;2022-09-13T00:32:40;17.70;99.90
59855;DHT22;45732;52.850;6.896;2022-09-13T00:35:06;17.70;99.90
59855;DHT22;45732;52.850;6.896;2022-09-13T00:37:32;17.70;99.90
59855;DHT22;45732;52.850;6.896;2022-09-13T00:39:59;17.70;99.90
59855;DHT22;45732;52.850;6.896;2022-09-13T00:42:30;17.70;99.90
59855;DHT22;45732;52.850;6.896;2022-09-13T00:47:39;17.70;99.90
59855;DHT22;45732;52.850;6.896;2022-09-13T00:50:35;17.70;99.90
59855;DHT22;45732;52.850;6.896;2022-09-13T00:53:11;17.60;99.90
59855;DHT22;45732;52.850;6.896;2022-09-13T00:55:49;17.60;99.90
59855;DHT22;45732;52.850;6.896;2022-09-13T00:58:38;17.60;99.90
59855;DHT22;45732;52.850;6.896;2022-09-13T01:01:10;17.60;99.90
59855;DHT22;45732;52.850;6.896;2022-09-13T01:03:37;17.60;99.90
59855;DHT22;45732;52.850;6.896;2022-09-13T01:06:13;17.60;99.90
59855;DHT22;45732;52.850;6.896;2022-09-13T01:08:42;17.60;99.90
59855;DHT22;45732;52.850;6.896;2022-09-13T01:11:16;17.60;99.90
59855;DHT22;45732;52.850;6.896;2022-09-13T01:13:44;17.60;99.90
59855;DHT22;45732;52.850;6.896;2022-09-13T01:16:10;17.50;99.90
59855;DHT22;45732;52.850;6.896;2022-09-13T01:18:36;17.60;99.90
59855;DHT22;45732;52.850;6.896;2022-09-13T01:30:07;17.50;99.90
59855;DHT22;45732;52.850;6.896;2022-09-13T01:35:30;17.50;99.90
59855;DHT22;45732;52.850;6.896;2022-09-13T01:41:22;17.50;99.90
59855;DHT22;45732;52.850;6.896;2022-09-13T01:43:59;17.50;99.90
59855;DHT22;45732;52.850;6.896;2022-09-13T01:54:27;17.50;99.90
59855;DHT22;45732;52.850;6.896;2022-09-13T01:59:57;17.50;99.90
59855;DHT22;45732;52.850;6.896;2022-09-13T02:02:51;17.50;99.90
59855;DHT22;45732;52.850;6.896;2022-09-13T02:05:23;17.50;99.90
59855;DHT22;45732;52.850;6.896;2022-09-13T02:08:12;17.50;99.90
59855;DHT22;45732;52.850;6.896;2022-09-13T02:10:52;17.50;99.90
59855;DHT22;45732;52.850;6.896;2022-09-13T02:13:23;17.50;99.90
59855;DHT22;45732;52.850;6.896;2022-09-13T02:15:54;17.50;99.90
59855;DHT22;45732;52.850;6.896;2022-09-13T02:18:35;17.50;99.90
59855;DHT22;45732;52.850;6.896;2022-09-13T02:21:15;17.50;99.90
59855;DHT22;45732;52.850;6.896;2022-09-13T02:23:49;17.50;99.90
59855;DHT22;45732;52.850;6.896;2022-09-13T02:26:17;17.40;99.90
59855;DHT22;45732;52.850;6.896;2022-09-13T02:28:48;17.50;99.90
59855;DHT22;45732;52.850;6.896;2022-09-13T02:31:24;17.50;99.90
59855;DHT22;45732;52.850;6.896;2022-09-13T02:34:38;17.50;99.90
59855;DHT22;45732;52.850;6.896;2022-09-13T02:36:45;17.50;99.90
59855;DHT22;45732;52.850;6.896;2022-09-13T02:39:15;17.40;99.90
59855;DHT22;45732;52.850;6.896;2022-09-13T02:44:34;17.40;99.90
59855;DHT22;45732;52.850;6.896;2022-09-13T02:52:44;17.40;99.90
59855;DHT22;45732;52.850;6.896;2022-09-13T02:55:46;17.40;99.90
59855;DHT22;45732;52.850;6.896;2022-09-13T02:58:27;17.40;99.90
59855;DHT22;45732;52.850;6.896;2022-09-13T03:00:55;17.40;99.90
59855;DHT22;45732;52.850;6.896;2022-09-13T03:03:21;17.40;99.90
59855;DHT22;45732;52.850;6.896;2022-09-13T03:05:48;17.40;99.90
59855;DHT22;45732;52.850;6.896;2022-09-13T03:08:16;17.40;99.90
59855;DHT22;45732;52.850;6.896;2022-09-13T03:19:22;17.40;99.90
59855;DHT22;45732;52.850;6.896;2022-09-13T03:22:18;17.40;99.90
59855;DHT22;45732;52.850;6.896;2022-09-13T03:28:02;17.40;99.90
59855;DHT22;45732;52.850;6.896;2022-09-13T03:30:33;17.40;99.90
59855;DHT22;45732;52.850;6.896;2022-09-13T03:33:19;17.40;99.90
59855;DHT22;45732;52.850;6.896;2022-09-13T03:35:55;17.40;99.90
59855;DHT22;45732;52.850;6.896;2022-09-13T03:38:34;17.40;99.90
59855;DHT22;45732;52.850;6.896;2022-09-13T03:41:18;17.40;99.90
59855;DHT22;45732;52.850;6.896;2022-09-13T03:43:59;17.40;99.90
59855;DHT22;45732;52.850;6.896;2022-09-13T03:46:33;17.40;99.90
59855;DHT22;45732;52.850;6.896;2022-09-13T03:49:09;17.40;99.90
59855;DHT22;45732;52.850;6.896;2022-09-13T03:51:36;17.40;99.90
59855;DHT22;45732;52.850;6.896;2022-09-13T03:54:08;17.40;99.90
59855;DHT22;45732;52.850;6.896;2022-09-13T03:56:36;17.40;99.90
59855;DHT22;45732;52.850;6.896;2022-09-13T03:59:01;17.40;99.90
59855;DHT22;45732;52.850;6.896;2022-09-13T04:01:27;17.40;99.90
59855;DHT22;45732;52.850;6.896;2022-09-13T04:03:53;17.40;99.90
59855;DHT22;45732;52.850;6.896;2022-09-13T04:06:20;17.40;99.90
59855;DHT22;45732;52.850;6.896;2022-09-13T04:08:45;17.40;99.90
59855;DHT22;45732;52.850;6.896;2022-09-13T04:11:11;17.40;99.90
59855;DHT22;45732;52.850;6.896;2022-09-13T04:13:37;17.40;99.90
59855;DHT22;45732;52.850;6.896;2022-09-13T04:16:05;17.50;99.90
59855;DHT22;45732;52.850;6.896;2022-09-13T04:18:31;17.50;99.90
59855;DHT22;45732;52.850;6.896;2022-09-13T04:20:58;17.50;99.90
59855;DHT22;45732;52.850;6.896;2022-09-13T04:23:26;17.50;99.90
59855;DHT22;45732;52.850;6.896;2022-09-13T04:25:52;17.40;99.90
59855;DHT22;45732;52.850;6.896;2022-09-13T04:28:18;17.40;99.90
59855;DHT22;45732;52.850;6.896;2022-09-13T04:30:46;17.40;99.90
59855;DHT22;45732;52.850;6.896;2022-09-13T04:33:12;17.50;99.90
59855;DHT22;45732;52.850;6.896;2022-09-13T04:35:38;17.40;99.90
59855;DHT22;45732;52.850;6.896;2022-09-13T04:38:06;17.40;99.90
59855;DHT22;45732;52.850;6.896;2022-09-13T04:40:34;17.50;99.90
59855;DHT22;45732;52.850;6.896;2022-09-13T04:43:00;17.50;99.90
59855;DHT22;45732;52.850;6.896;2022-09-13T04:45:27;17.50;99.90
59855;DHT22;45732;52.850;6.896;2022-09-13T04:47:54;17.50;99.90
59855;DHT22;45732;52.850;6.896;2022-09-13T04:50:21;17.50;99.90
59855;DHT22;45732;52.850;6.896;2022-09-13T04:52:47;17.50;99.90
59855;DHT22;45732;52.850;6.896;2022-09-13T04:55:13;17.50;99.90
59855;DHT22;45732;52.850;6.896;2022-09-13T04:57:40;17.50;99.90
59855;DHT22;45732;52.850;6.896;2022-09-13T05:00:07;17.50;99.90
59855;DHT22;45732;52.850;6.896;2022-09-13T05:02:33;17.50;99.90
59855;DHT22;45732;52.850;6.896;2022-09-13T05:04:59;17.50;99.90
59855;DHT22;45732;52.850;6.896;2022-09-13T05:07:24;17.50;99.90
59855;DHT22;45732;52.850;6.896;2022-09-13T05:09:50;17.50;99.90
59855;DHT22;45732;52.850;6.896;2022-09-13T05:12:16;17.50;99.90
59855;DHT22;45732;52.850;6.896;2022-09-13T05:14:41;17.60;99.90
59855;DHT22;45732;52.850;6.896;2022-09-13T05:17:07;17.60;99.90
59855;DHT22;45732;52.850;6.896;2022-09-13T05:19:33;17.60;99.90
59855;DHT22;45732;52.850;6.896;2022-09-13T05:21:59;17.60;99.90
59855;DHT22;45732;52.850;6.896;2022-09-13T05:24:25;17.60;99.90
59855;DHT22;45732;52.850;6.896;2022-09-13T05:26:51;17.60;99.90
59855;DHT22;45732;52.850;6.896;2022-09-13T05:29:16;17.60;99.90
59855;DHT22;45732;52.850;6.896;2022-09-13T05:31:42;17.60;99.90
59855;DHT22;45732;52.850;6.896;2022-09-13T05:34:10;17.70;99.90
59855;DHT22;45732;52.850;6.896;2022-09-13T05:36:37;17.70;99.90
59855;DHT22;45732;52.850;6.896;2022-09-13T05:39:03;17.70;99.90
59855;DHT22;45732;52.850;6.896;2022-09-13T05:41:29;17.70;99.90
59855;DHT22;45732;52.850;6.896;2022-09-13T05:43:56;17.70;99.90
59855;DHT22;45732;52.850;6.896;2022-09-13T05:46:21;17.70;99.90
59855;DHT22;45732;52.850;6.896;2022-09-13T05:48:48;17.70;99.90
59855;DHT22;45732;52.850;6.896;2022-09-13T05:51:16;17.70;99.90
59855;DHT22;45732;52.850;6.896;2022-09-13T05:53:43;17.70;99.90
59855;DHT22;45732;52.850;6.896;2022-09-13T05:56:14;17.70;99.90
59855;DHT22;45732;52.850;6.896;2022-09-13T05:58:42;17.70;99.90
59855;DHT22;45732;52.850;6.896;2022-09-13T06:01:09;17.80;99.90
59855;DHT22;45732;52.850;6.896;2022-09-13T06:03:35;17.70;99.90
59855;DHT22;45732;52.850;6.896;2022-09-13T06:06:02;17.70;99.90
59855;DHT22;45732;52.850;6.896;2022-09-13T06:08:31;17.70;99.90
59855;DHT22;45732;52.850;6.896;2022-09-13T06:11:05;17.70;99.90
59855;DHT22;45732;52.850;6.896;2022-09-13T06:13:31;17.80;99.90
59855;DHT22;45732;52.850;6.896;2022-09-13T06:15:58;17.70;99.90
59855;DHT22;45732;52.850;6.896;2022-09-13T06:18:25;17.70;99.90
59855;DHT22;45732;52.850;6.896;2022-09-13T06:20:59;17.70;99.90
59855;DHT22;45732;52.850;6.896;2022-09-13T06:23:26;17.70;99.90
59855;DHT22;45732;52.850;6.896;2022-09-13T06:26:19;17.70;99.90
59855;DHT22;45732;52.850;6.896;2022-09-13T06:28:49;17.80;99.90
59855;DHT22;45732;52.850;6.896;2022-09-13T06:31:17;17.70;99.90
59855;DHT22;45732;52.850;6.896;2022-09-13T06:33:43;17.80;99.90
59855;DHT22;45732;52.850;6.896;2022-09-13T06:38:38;17.80;99.90
59855;DHT22;45732;52.850;6.896;2022-09-13T06:41:12;17.80;99.90
59855;DHT22;45732;52.850;6.896;2022-09-13T06:43:39;17.80;99.90
59855;DHT22;45732;52.850;6.896;2022-09-13T06:46:07;17.80;99.90
59855;DHT22;45732;52.850;6.896;2022-09-13T06:48:35;17.70;99.90
59855;DHT22;45732;52.850;6.896;2022-09-13T06:51:03;17.70;99.90
59855;DHT22;45732;52.850;6.896;2022-09-13T06:53:29;17.70;99.90
59855;DHT22;45732;52.850;6.896;2022-09-13T06:56:11;17.70;99.90
59855;DHT22;45732;52.850;6.896;2022-09-13T06:58:38;17.70;99.90
59855;DHT22;45732;52.850;6.896;2022-09-13T07:03:39;17.60;99.90
59855;DHT22;45732;52.850;6.896;2022-09-13T07:06:14;17.60;99.90
59855;DHT22;45732;52.850;6.896;2022-09-13T07:08:41;17.60;99.90
59855;DHT22;45732;52.850;6.896;2022-09-13T07:11:07;17.60;99.90
59855;DHT22;45732;52.850;6.896;2022-09-13T07:13:34;17.60;99.90
59855;DHT22;45732;52.850;6.896;2022-09-13T07:16:08;17.60;99.90
59855;DHT22;45732;52.850;6.896;2022-09-13T07:18:35;17.70;99.90
59855;DHT22;45732;52.850;6.896;2022-09-13T07:21:03;17.70;99.90
59855;DHT22;45732;52.850;6.896;2022-09-13T07:23:31;17.70;99.90
59855;DHT22;45732;52.850;6.896;2022-09-13T07:25:57;17.70;99.90
59855;DHT22;45732;52.850;6.896;2022-09-13T07:28:28;17.70;99.90
59855;DHT22;45732;52.850;6.896;2022-09-13T07:30:55;17.60;99.90
59855;DHT22;45732;52.850;6.896;2022-09-13T07:33:23;17.70;99.90
59855;DHT22;45732;52.850;6.896;2022-09-13T07:35:57;17.70;99.90
59855;DHT22;45732;52.850;6.896;2022-09-13T07:38:24;17.70;99.90
59855;DHT22;45732;52.850;6.896;2022-09-13T07:40:56;17.80;99.90
59855;DHT22;45732;52.850;6.896;2022-09-13T07:43:27;17.80;99.90
59855;DHT22;45732;52.850;6.896;2022-09-13T07:46:00;17.80;99.90
59855;DHT22;45732;52.850;6.896;2022-09-13T07:48:28;17.90;99.90
59855;DHT22;45732;52.850;6.896;2022-09-13T07:51:03;17.90;99.90
59855;DHT22;45732;52.850;6.896;2022-09-13T07:53:32;18.00;99.90
59855;DHT22;45732;52.850;6.896;2022-09-13T07:56:04;18.00;99.90
59855;DHT22;45732;52.850;6.896;2022-09-13T07:58:31;18.00;99.90
59855;DHT22;45732;52.850;6.896;2022-09-13T08:01:03;18.00;99.90
59855;DHT22;45732;52.850;6.896;2022-09-13T08:03:29;18.10;99.90
59855;DHT22;45732;52.850;6.896;2022-09-13T08:05:55;18.00;99.90
59855;DHT22;45732;52.850;6.896;2022-09-13T08:08:21;18.00;99.90
59855;DHT22;45732;52.850;6.896;2022-09-13T08:10:46;18.10;99.90
59855;DHT22;45732;52.850;6.896;2022-09-13T08:13:15;18.10;99.90
59855;DHT22;45732;52.850;6.896;2022-09-13T08:15:41;18.10;99.90
59855;DHT22;45732;52.850;6.896;2022-09-13T08:18:07;18.20;99.90
59855;DHT22;45732;52.850;6.896;2022-09-13T08:20:36;18.20;99.90
59855;DHT22;45732;52.850;6.896;2022-09-13T08:23:03;18.30;99.90
59855;DHT22;45732;52.850;6.896;2022-09-13T08:25:34;18.30;99.90
59855;DHT22;45732;52.850;6.896;2022-09-13T08:28:14;18.30;99.90
59855;DHT22;45732;52.850;6.896;2022-09-13T08:30:41;18.30;99.90
59855;DHT22;45732;52.850;6.896;2022-09-13T08:33:09;18.40;99.90
59855;DHT22;45732;52.850;6.896;2022-09-13T08:35:37;18.30;99.90
59855;DHT22;45732;52.850;6.896;2022-09-13T08:38:03;18.40;99.90
59855;DHT22;45732;52.850;6.896;2022-09-13T08:40:52;18.40;99.90
59855;DHT22;45732;52.850;6.896;2022-09-13T08:46:05;18.50;99.90
59855;DHT22;45732;52.850;6.896;2022-09-13T08:48:35;18.50;99.90
59855;DHT22;45732;52.850;6.896;2022-09-13T08:51:05;18.50;99.90
59855;DHT22;45732;52.850;6.896;2022-09-13T08:53:46;18.50;99.90
59855;DHT22;45732;52.850;6.896;2022-09-13T08:56:22;18.60;99.90
59855;DHT22;45732;52.850;6.896;2022-09-13T08:59:02;18.70;99.90
59855;DHT22;45732;52.850;6.896;2022-09-13T09:02:17;18.60;99.90
59855;DHT22;45732;52.850;6.896;2022-09-13T09:07:20;18.50;99.90
59855;DHT22;45732;52.850;6.896;2022-09-13T09:09:57;18.50;99.90
59855;DHT22;45732;52.850;6.896;2022-09-13T09:15:09;18.50;99.90
59855;DHT22;45732;52.850;6.896;2022-09-13T09:17:43;18.60;99.90
59855;DHT22;45732;52.850;6.896;2022-09-13T09:25:44;19.00;99.90
59855;DHT22;45732;52.850;6.896;2022-09-13T09:28:17;19.20;99.90
59855;DHT22;45732;52.850;6.896;2022-09-13T09:31:00;19.30;99.90
59855;DHT22;45732;52.850;6.896;2022-09-13T09:38:43;19.10;99.90
59855;DHT22;45732;52.850;6.896;2022-09-13T09:41:14;19.00;99.90
59855;DHT22;45732;52.850;6.896;2022-09-13T09:43:45;19.10;99.90
59855;DHT22;45732;52.850;6.896;2022-09-13T09:46:13;19.10;99.90
59855;DHT22;45732;52.850;6.896;2022-09-13T09:48:53;19.10;99.90
59855;DHT22;45732;52.850;6.896;2022-09-13T09:51:21;19.10;99.90
59855;DHT22;45732;52.850;6.896;2022-09-13T09:53:51;19.20;99.90
59855;DHT22;45732;52.850;6.896;2022-09-13T09:56:24;19.30;99.90
59855;DHT22;45732;52.850;6.896;2022-09-13T09:58:50;19.40;99.90
59855;DHT22;45732;52.850;6.896;2022-09-13T10:01:33;19.40;99.90
59855;DHT22;45732;52.850;6.896;2022-09-13T10:06:40;19.30;99.90
59855;DHT22;45732;52.850;6.896;2022-09-13T10:09:15;19.30;99.90
59855;DHT22;45732;52.850;6.896;2022-09-13T10:14:29;19.40;99.90
59855;DHT22;45732;52.850;6.896;2022-09-13T10:17:15;19.40;99.90
59855;DHT22;45732;52.850;6.896;2022-09-13T10:19:51;19.50;99.90
59855;DHT22;45732;52.850;6.896;2022-09-13T10:22:19;19.60;99.90
59855;DHT22;45732;52.850;6.896;2022-09-13T10:24:44;19.70;99.90
59855;DHT22;45732;52.850;6.896;2022-09-13T10:27:34;19.80;99.90
59855;DHT22;45732;52.850;6.896;2022-09-13T10:30:03;19.90;99.90
59855;DHT22;45732;52.850;6.896;2022-09-13T10:32:31;20.10;99.90
59855;DHT22;45732;52.850;6.896;2022-09-13T10:35:15;20.10;99.90
59855;DHT22;45732;52.850;6.896;2022-09-13T10:37:42;20.00;99.90
59855;DHT22;45732;52.850;6.896;2022-09-13T10:40:28;19.90;99.90
59855;DHT22;45732;52.850;6.896;2022-09-13T10:43:00;19.90;99.90
59855;DHT22;45732;52.850;6.896;2022-09-13T10:45:28;20.00;99.90
59855;DHT22;45732;52.850;6.896;2022-09-13T10:48:02;20.00;99.90
59855;DHT22;45732;52.850;6.896;2022-09-13T10:50:29;20.00;99.90
59855;DHT22;45732;52.850;6.896;2022-09-13T10:53:01;20.10;99.90
59855;DHT22;45732;52.850;6.896;2022-09-13T10:55:37;20.20;99.90
59855;DHT22;45732;52.850;6.896;2022-09-13T11:06:29;20.00;99.90
59855;DHT22;45732;52.850;6.896;2022-09-13T11:09:18;20.00;99.90
59855;DHT22;45732;52.850;6.896;2022-09-13T11:12:17;20.00;99.90
59855;DHT22;45732;52.850;6.896;2022-09-13T11:15:05;20.10;99.90
59855;DHT22;45732;52.850;6.896;2022-09-13T11:23:12;20.20;99.90
59855;DHT22;45732;52.850;6.896;2022-09-13T11:34:16;20.10;99.90
59855;DHT22;45732;52.850;6.896;2022-09-13T11:36:57;20.10;99.90
59855;DHT22;45732;52.850;6.896;2022-09-13T11:39:32;20.10;99.90
59855;DHT22;45732;52.850;6.896;2022-09-13T11:44:51;20.20;99.90
59855;DHT22;45732;52.850;6.896;2022-09-13T11:47:44;20.20;99.90
59855;DHT22;45732;52.850;6.896;2022-09-13T11:55:39;20.10;99.90
59855;DHT22;45732;52.850;6.896;2022-09-13T11:58:30;20.20;99.90
59855;DHT22;45732;52.850;6.896;2022-09-13T12:01:00;20.20;99.90
59855;DHT22;45732;52.850;6.896;2022-09-13T12:08:50;20.20;99.90
59855;DHT22;45732;52.850;6.896;2022-09-13T12:13:50;20.20;99.90
59855;DHT22;45732;52.850;6.896;2022-09-13T12:16:24;20.20;99.90
59855;DHT22;45732;52.850;6.896;2022-09-13T12:18:54;20.20;99.90
59855;DHT22;45732;52.850;6.896;2022-09-13T12:21:31;20.30;99.90
59855;DHT22;45732;52.850;6.896;2022-09-13T12:26:42;20.30;99.90
59855;DHT22;45732;52.850;6.896;2022-09-13T12:29:30;20.40;99.90
59855;DHT22;45732;52.850;6.896;2022-09-13T12:32:02;20.40;99.90
59855;DHT22;45732;52.850;6.896;2022-09-13T12:34:51;20.40;99.90
59855;DHT22;45732;52.850;6.896;2022-09-13T12:45:49;20.30;99.90
59855;DHT22;45732;52.850;6.896;2022-09-13T13:02:18;20.40;99.90
59855;DHT22;45732;52.850;6.896;2022-09-13T13:04:51;20.40;99.90
59855;DHT22;45732;52.850;6.896;2022-09-13T13:07:21;20.50;99.90
59855;DHT22;45732;52.850;6.896;2022-09-13T13:09:49;20.50;99.90
59855;DHT22;45732;52.850;6.896;2022-09-13T13:14:52;20.50;99.90
59855;DHT22;45732;52.850;6.896;2022-09-13T13:33:57;20.50;99.90
59855;DHT22;45732;52.850;6.896;2022-09-13T13:38:53;20.60;99.90
59855;DHT22;45732;52.850;6.896;2022-09-13T13:46:49;20.70;99.90
59855;DHT22;45732;52.850;6.896;2022-09-13T13:57:31;20.60;99.90
59855;DHT22;45732;52.850;6.896;2022-09-13T14:00:14;20.60;99.90
59855;DHT22;45732;52.850;6.896;2022-09-13T14:11:12;20.50;99.90
59855;DHT22;45732;52.850;6.896;2022-09-13T14:13:53;20.50;99.90
59855;DHT22;45732;52.850;6.896;2022-09-13T14:19:25;20.60;99.90
59855;DHT22;45732;52.850;6.896;2022-09-13T14:24:43;20.50;99.90
59855;DHT22;45732;52.850;6.896;2022-09-13T14:29:47;20.50;99.90
59855;DHT22;45732;52.850;6.896;2022-09-13T14:32:19;20.50;99.90
59855;DHT22;45732;52.850;6.896;2022-09-13T14:37:18;20.40;99.90
59855;DHT22;45732;52.850;6.896;2022-09-13T14:39:53;20.40;99.90
59855;DHT22;45732;52.850;6.896;2022-09-13T14:42:19;20.40;99.90
59855;DHT22;45732;52.850;6.896;2022-09-13T14:44:46;20.50;99.90
59855;DHT22;45732;52.850;6.896;2022-09-13T14:47:33;20.50;99.90
59855;DHT22;45732;52.850;6.896;2022-09-13T14:50:10;20.50;99.90
59855;DHT22;45732;52.850;6.896;2022-09-13T14:52:49;20.40;99.90
59855;DHT22;45732;52.850;6.896;2022-09-13T14:55:20;20.50;99.90
59855;DHT22;45732;52.850;6.896;2022-09-13T14:57:51;20.50;99.90
59855;DHT22;45732;52.850;6.896;2022-09-13T15:00:22;20.50;99.90
59855;DHT22;45732;52.850;6.896;2022-09-13T15:03:03;20.50;99.90
59855;DHT22;45732;52.850;6.896;2022-09-13T15:05:33;20.50;99.90
59855;DHT22;45732;52.850;6.896;2022-09-13T15:10:59;20.60;99.90
59855;DHT22;45732;52.850;6.896;2022-09-13T15:13:25;20.60;99.90
59855;DHT22;45732;52.850;6.896;2022-09-13T15:15:54;20.60;99.90
59855;DHT22;45732;52.850;6.896;2022-09-13T15:23:23;20.70;99.90
59855;DHT22;45732;52.850;6.896;2022-09-13T15:25:52;20.80;99.90
59855;DHT22;45732;52.850;6.896;2022-09-13T15:28:28;20.70;99.90
59855;DHT22;45732;52.850;6.896;2022-09-13T15:30:55;20.80;99.90
59855;DHT22;45732;52.850;6.896;2022-09-13T15:33:29;20.80;99.90
59855;DHT22;45732;52.850;6.896;2022-09-13T15:39:15;20.80;99.90
59855;DHT22;45732;52.850;6.896;2022-09-13T15:41:56;20.70;99.90
59855;DHT22;45732;52.850;6.896;2022-09-13T15:44:23;20.80;99.90
59855;DHT22;45732;52.850;6.896;2022-09-13T15:46:52;20.80;99.90
59855;DHT22;45732;52.850;6.896;2022-09-13T15:49:20;20.70;99.90
59855;DHT22;45732;52.850;6.896;2022-09-13T15:51:55;20.70;99.90
59855;DHT22;45732;52.850;6.896;2022-09-13T15:54:21;20.60;99.90
59855;DHT22;45732;52.850;6.896;2022-09-13T15:56:48;20.40;99.90
59855;DHT22;45732;52.850;6.896;2022-09-13T15:59:19;20.40;99.90
59855;DHT22;45732;52.850;6.896;2022-09-13T16:01:47;20.30;99.90
59855;DHT22;45732;52.850;6.896;2022-09-13T16:04:14;20.20;99.90
59855;DHT22;45732;52.850;6.896;2022-09-13T16:06:40;20.20;99.90
59855;DHT22;45732;52.850;6.896;2022-09-13T16:09:18;20.10;99.90
59855;DHT22;45732;52.850;6.896;2022-09-13T16:11:45;20.00;99.90
59855;DHT22;45732;52.850;6.896;2022-09-13T16:14:11;19.90;99.90
59855;DHT22;45732;52.850;6.896;2022-09-13T16:16:37;20.00;99.90
59855;DHT22;45732;52.850;6.896;2022-09-13T16:19:02;19.90;99.90
59855;DHT22;45732;52.850;6.896;2022-09-13T16:21:29;20.00;99.90
59855;DHT22;45732;52.850;6.896;2022-09-13T16:23:54;19.90;99.90
59855;DHT22;45732;52.850;6.896;2022-09-13T16:26:20;19.80;99.90
59855;DHT22;45732;52.850;6.896;2022-09-13T16:28:46;19.80;99.90
59855;DHT22;45732;52.850;6.896;2022-09-13T16:31:12;19.80;99.90
59855;DHT22;45732;52.850;6.896;2022-09-13T16:33:41;19.70;99.90
59855;DHT22;45732;52.850;6.896;2022-09-13T16:36:10;19.70;99.90
59855;DHT22;45732;52.850;6.896;2022-09-13T16:38:37;19.60;99.90
59855;DHT22;45732;52.850;6.896;2022-09-13T16:41:06;19.50;99.90
59855;DHT22;45732;52.850;6.896;2022-09-13T16:43:32;19.50;99.90
59855;DHT22;45732;52.850;6.896;2022-09-13T16:46:04;19.40;99.90
59855;DHT22;45732;52.850;6.896;2022-09-13T16:48:29;19.30;99.90
59855;DHT22;45732;52.850;6.896;2022-09-13T16:51:01;19.30;99.90
59855;DHT22;45732;52.850;6.896;2022-09-13T16:53:33;19.30;99.90
59855;DHT22;45732;52.850;6.896;2022-09-13T16:56:13;19.20;99.90
59855;DHT22;45732;52.850;6.896;2022-09-13T16:58:42;19.20;99.90
59855;DHT22;45732;52.850;6.896;2022-09-13T17:01:10;19.10;99.90
59855;DHT22;45732;52.850;6.896;2022-09-13T17:03:37;19.00;99.90
59855;DHT22;45732;52.850;6.896;2022-09-13T17:06:09;19.00;99.90
59855;DHT22;45732;52.850;6.896;2022-09-13T17:08:37;19.00;99.90
59855;DHT22;45732;52.850;6.896;2022-09-13T17:11:08;18.90;99.90
59855;DHT22;45732;52.850;6.896;2022-09-13T17:13:38;18.90;99.90
59855;DHT22;45732;52.850;6.896;2022-09-13T17:16:05;18.80;99.90
59855;DHT22;45732;52.850;6.896;2022-09-13T17:18:31;18.80;99.90
59855;DHT22;45732;52.850;6.896;2022-09-13T17:20:58;18.80;99.90
59855;DHT22;45732;52.850;6.896;2022-09-13T17:23:24;18.70;99.90
59855;DHT22;45732;52.850;6.896;2022-09-13T17:25:50;18.60;99.90
59855;DHT22;45732;52.850;6.896;2022-09-13T17:28:17;18.60;99.90
59855;DHT22;45732;52.850;6.896;2022-09-13T17:30:45;18.60;99.90
59855;DHT22;45732;52.850;6.896;2022-09-13T17:33:11;18.50;99.90
59855;DHT22;45732;52.850;6.896;2022-09-13T17:35:37;18.50;99.90
59855;DHT22;45732;52.850;6.896;2022-09-13T17:38:04;18.40;99.90
59855;DHT22;45732;52.850;6.896;2022-09-13T17:40:31;18.40;99.90
59855;DHT22;45732;52.850;6.896;2022-09-13T17:42:57;18.30;99.90
59855;DHT22;45732;52.850;6.896;2022-09-13T17:45:23;18.30;99.90
59855;DHT22;45732;52.850;6.896;2022-09-13T17:47:53;18.20;99.90
59855;DHT22;45732;52.850;6.896;2022-09-13T17:50:19;18.20;99.90
59855;DHT22;45732;52.850;6.896;2022-09-13T17:52:45;18.10;99.90
59855;DHT22;45732;52.850;6.896;2022-09-13T17:55:11;18.10;99.90
59855;DHT22;45732;52.850;6.896;2022-09-13T17:57:37;18.00;99.90
59855;DHT22;45732;52.850;6.896;2022-09-13T18:00:04;18.00;99.90
59855;DHT22;45732;52.850;6.896;2022-09-13T18:02:32;18.00;99.90
59855;DHT22;45732;52.850;6.896;2022-09-13T18:04:58;17.90;99.90
59855;DHT22;45732;52.850;6.896;2022-09-13T18:07:23;17.90;99.90
59855;DHT22;45732;52.850;6.896;2022-09-13T18:09:49;17.80;99.90
59855;DHT22;45732;52.850;6.896;2022-09-13T18:12:15;17.80;99.90
59855;DHT22;45732;52.850;6.896;2022-09-13T18:14:40;17.60;99.90
59855;DHT22;45732;52.850;6.896;2022-09-13T18:17:07;17.60;99.90
59855;DHT22;45732;52.850;6.896;2022-09-13T18:19:40;17.60;99.90
59855;DHT22;45732;52.850;6.896;2022-09-13T18:22:07;17.50;99.90
59855;DHT22;45732;52.850;6.896;2022-09-13T18:24:34;17.40;99.90
59855;DHT22;45732;52.850;6.896;2022-09-13T18:27:00;17.40;99.90
59855;DHT22;45732;52.850;6.896;2022-09-13T18:29:27;17.40;99.90
59855;DHT22;45732;52.850;6.896;2022-09-13T18:31:54;17.40;99.90
59855;DHT22;45732;52.850;6.896;2022-09-13T18:34:20;17.30;99.90
59855;DHT22;45732;52.850;6.896;2022-09-13T18:36:45;17.30;99.90
59855;DHT22;45732;52.850;6.896;2022-09-13T18:39:15;17.20;99.90
59855;DHT22;45732;52.850;6.896;2022-09-13T18:41:41;17.20;99.90
59855;DHT22;45732;52.850;6.896;2022-09-13T18:44:08;17.00;99.90
59855;DHT22;45732;52.850;6.896;2022-09-13T18:46:34;17.00;99.90
59855;DHT22;45732;52.850;6.896;2022-09-13T18:49:01;17.00;99.90
59855;DHT22;45732;52.850;6.896;2022-09-13T18:51:35;16.90;99.90
59855;DHT22;45732;52.850;6.896;2022-09-13T18:54:02;16.90;99.90
59855;DHT22;45732;52.850;6.896;2022-09-13T18:56:29;16.90;99.90
59855;DHT22;45732;52.850;6.896;2022-09-13T18:58:59;16.80;99.90
59855;DHT22;45732;52.850;6.896;2022-09-13T19:01:31;16.70;99.90
59855;DHT22;45732;52.850;6.896;2022-09-13T19:03:59;16.80;99.90
59855;DHT22;45732;52.850;6.896;2022-09-13T19:06:28;16.70;99.90
59855;DHT22;45732;52.850;6.896;2022-09-13T19:08:55;16.60;99.90
59855;DHT22;45732;52.850;6.896;2022-09-13T19:11:24;16.50;99.90
59855;DHT22;45732;52.850;6.896;2022-09-13T19:13:50;16.50;99.90
59855;DHT22;45732;52.850;6.896;2022-09-13T19:16:18;16.50;99.90
59855;DHT22;45732;52.850;6.896;2022-09-13T19:18:46;16.40;99.90